Terminal Aerodrome Forecast
Issued by NWS

Home | Current Version | Previous Version | Text Only | Print | Product List | Glossary On
Versions: 1 2 3 4 5 6 7 8 9 10 11 12 13 14 15 16 17 18
000
FTUS45 KTFX 261955 AAB
TAFGTF
TAF AMD
KGTF 261955Z 2620/2718 28014G22KT P6SM FEW110
     FM262045 35012G22KT P6SM SCT060 BKN100
     FM270100 VRB05KT P6SM VCTS BKN060CB OVC100=

USA.gov is the U.S. government's official web portal to all federal, state and local government web resources and services.